createdAt,value
2018-12-27T00:00:50.570Z,1020.79
2018-12-27T00:01:50.556Z,1020.80
2018-12-27T00:02:54.902Z,1020.82
2018-12-27T00:03:50.699Z,1020.77
2018-12-27T00:04:50.636Z,1020.79
2018-12-27T00:05:50.545Z,1020.80
2018-12-27T00:06:50.801Z,1020.76
2018-12-27T00:07:50.508Z,1020.83
2018-12-27T00:08:50.477Z,1020.85
2018-12-27T00:09:50.469Z,1020.79
2018-12-27T00:10:50.530Z,1020.76
2018-12-27T00:11:50.812Z,1020.78
2018-12-27T00:12:50.467Z,1020.75
2018-12-27T00:13:50.431Z,1020.70
2018-12-27T00:14:50.419Z,1020.69
2018-12-27T00:15:50.407Z,1020.67
2018-12-27T00:16:50.394Z,1020.63
2018-12-27T00:17:50.438Z,1020.69
2018-12-27T00:18:50.376Z,1020.64
2018-12-27T00:19:50.362Z,1020.69
2018-12-27T00:20:50.358Z,1020.59
2018-12-27T00:21:50.338Z,1020.63
2018-12-27T00:22:50.362Z,1020.64
2018-12-27T00:23:50.328Z,1020.58
2018-12-27T00:24:50.312Z,1020.53
2018-12-27T00:25:50.309Z,1020.60
2018-12-27T00:26:50.292Z,1020.61
2018-12-27T00:27:50.311Z,1020.59
2018-12-27T00:28:50.267Z,1020.56
2018-12-27T00:29:50.285Z,1020.53
2018-12-27T00:30:50.247Z,1020.60
2018-12-27T00:31:50.259Z,1020.60
2018-12-27T00:32:50.252Z,1020.60
2018-12-27T00:33:50.246Z,1020.54
2018-12-27T00:34:50.205Z,1020.50
2018-12-27T00:35:50.201Z,1020.56
2018-12-27T00:36:50.195Z,1020.55
2018-12-27T00:37:50.204Z,1020.53
2018-12-27T00:38:51.537Z,1020.50
2018-12-27T00:39:50.176Z,1020.52
2018-12-27T00:40:50.149Z,1020.53
2018-12-27T00:41:50.131Z,1020.46
2018-12-27T00:42:50.179Z,1020.53
2018-12-27T00:43:50.122Z,1020.52
2018-12-27T00:44:50.110Z,1020.50
2018-12-27T00:45:50.092Z,1020.53
2018-12-27T00:46:50.081Z,1020.53
2018-12-27T00:47:50.090Z,1020.49
2018-12-27T00:48:50.055Z,1020.47
2018-12-27T00:49:50.047Z,1020.54
2018-12-27T00:50:50.042Z,1020.47
2018-12-27T00:51:50.032Z,1020.51
2018-12-27T00:52:50.015Z,1020.58
2018-12-27T00:53:50.021Z,1020.52
2018-12-27T00:54:50.031Z,1020.51
2018-12-27T00:55:49.989Z,1020.48
2018-12-27T00:56:49.976Z,1020.52
2018-12-27T00:57:49.961Z,1020.47
2018-12-27T00:58:49.988Z,1020.50
2018-12-27T00:59:49.934Z,1020.49
2018-12-27T01:00:49.924Z,1020.52
2018-12-27T01:01:49.912Z,1020.48
2018-12-27T01:02:49.915Z,1020.50
2018-12-27T01:03:49.898Z,1020.51
2018-12-27T01:04:49.950Z,1020.55
2018-12-27T01:05:49.868Z,1020.55
2018-12-27T01:06:49.861Z,1020.50
2018-12-27T01:07:49.853Z,1020.49
2018-12-27T01:08:49.850Z,1020.55
2018-12-27T01:09:49.835Z,1020.48
2018-12-27T01:10:49.867Z,1020.51
2018-12-27T01:11:49.806Z,1020.45
2018-12-27T01:12:49.794Z,1020.53
2018-12-27T01:13:49.792Z,1020.48
2018-12-27T01:14:49.773Z,1020.49
2018-12-27T01:15:49.768Z,1020.53
2018-12-27T01:16:49.779Z,1020.51
2018-12-27T01:17:49.749Z,1020.49
2018-12-27T01:18:49.739Z,1020.37
2018-12-27T01:19:49.723Z,1020.46
2018-12-27T01:20:49.713Z,1020.48
2018-12-27T01:21:49.728Z,1020.39
2018-12-27T01:22:49.693Z,1020.44
2018-12-27T01:23:49.675Z,1020.46
2018-12-27T01:24:49.668Z,1020.54
2018-12-27T01:25:49.656Z,1020.44
2018-12-27T01:26:49.672Z,1020.42
2018-12-27T01:27:49.639Z,1020.46
2018-12-27T01:28:49.630Z,1020.42
2018-12-27T01:29:49.619Z,1020.43
2018-12-27T01:30:49.607Z,1020.44
2018-12-27T01:31:50.707Z,1020.44
2018-12-27T01:32:49.591Z,1020.50
2018-12-27T01:33:49.572Z,1020.47
2018-12-27T01:34:49.560Z,1020.47
2018-12-27T01:35:49.554Z,1020.45
2018-12-27T01:36:49.578Z,1020.47
2018-12-27T01:37:49.527Z,1020.47
2018-12-27T01:38:49.517Z,1020.42
2018-12-27T01:39:49.529Z,1020.46
2018-12-27T01:40:49.503Z,1020.40
2018-12-27T01:41:49.490Z,1020.46
2018-12-27T01:42:49.499Z,1020.42
2018-12-27T01:43:49.462Z,1020.41
2018-12-27T01:44:49.456Z,1020.48
2018-12-27T01:45:49.452Z,1020.48
2018-12-27T01:46:49.430Z,1020.44
2018-12-27T01:47:49.446Z,1020.45
2018-12-27T01:48:49.422Z,1020.47
2018-12-27T01:49:49.404Z,1020.49
2018-12-27T01:50:49.396Z,1020.52
2018-12-27T01:51:49.375Z,1020.52
2018-12-27T01:52:49.395Z,1020.44
2018-12-27T01:53:49.366Z,1020.49
2018-12-27T01:54:49.354Z,1020.47
2018-12-27T01:55:49.335Z,1020.43
2018-12-27T01:56:49.323Z,1020.43
2018-12-27T01:57:49.334Z,1020.49
2018-12-27T01:58:49.302Z,1020.43
2018-12-27T01:59:49.298Z,1020.46
2018-12-27T02:00:49.285Z,1020.44
2018-12-27T02:01:49.281Z,1020.44
2018-12-27T02:02:49.296Z,1020.49
2018-12-27T02:03:49.255Z,1020.53
2018-12-27T02:04:49.241Z,1020.46
2018-12-27T02:05:49.227Z,1020.42
2018-12-27T02:06:49.215Z,1020.50
2018-12-27T02:07:49.211Z,1020.51
2018-12-27T02:08:49.225Z,1020.45
2018-12-27T02:09:49.182Z,1020.49
2018-12-27T02:10:49.174Z,1020.51
2018-12-27T02:11:49.169Z,1020.46
2018-12-27T02:12:49.156Z,1020.46
2018-12-27T02:13:49.188Z,1020.50
2018-12-27T02:14:49.137Z,1020.48
2018-12-27T02:15:49.120Z,1020.51
2018-12-27T02:16:49.107Z,1020.48
2018-12-27T02:17:49.112Z,1020.46
2018-12-27T02:18:49.088Z,1020.50
2018-12-27T02:19:49.114Z,1020.50
2018-12-27T02:20:49.078Z,1020.50
2018-12-27T02:21:49.062Z,1020.48
2018-12-27T02:22:49.052Z,1020.52
2018-12-27T02:23:49.033Z,1020.46
2018-12-27T02:24:49.023Z,1020.43
2018-12-27T02:25:49.066Z,1020.40
2018-12-27T02:26:49.008Z,1020.34
2018-12-27T02:27:48.993Z,1020.36
2018-12-27T02:28:48.983Z,1020.38
2018-12-27T02:29:48.972Z,1020.37
2018-12-27T02:30:48.960Z,1020.37
2018-12-27T02:31:48.998Z,1020.40
2018-12-27T02:32:48.946Z,1020.35
2018-12-27T02:33:48.935Z,1020.33
2018-12-27T02:34:48.936Z,1020.38
2018-12-27T02:35:48.906Z,1020.38
2018-12-27T02:36:48.942Z,1020.35
2018-12-27T02:37:48.888Z,1020.34
2018-12-27T02:38:48.879Z,1020.40
2018-12-27T02:39:48.871Z,1020.36
2018-12-27T02:40:48.862Z,1020.34
2018-12-27T02:41:48.841Z,1020.30
2018-12-27T02:42:48.862Z,1020.34
2018-12-27T02:43:48.832Z,1020.33
2018-12-27T02:44:48.819Z,1020.34
2018-12-27T02:45:48.806Z,1020.33
2018-12-27T02:46:48.797Z,1020.34
2018-12-27T02:47:48.783Z,1020.33
2018-12-27T02:48:48.798Z,1020.33
2018-12-27T02:49:48.760Z,1020.27
2018-12-27T02:50:48.772Z,1020.25
2018-12-27T02:51:57.815Z,1020.18
2018-12-27T02:52:48.735Z,1020.22
2018-12-27T02:53:48.716Z,1020.18
2018-12-27T02:54:48.753Z,1020.14
2018-12-27T02:55:48.708Z,1020.13
2018-12-27T02:56:48.687Z,1020.22
2018-12-27T02:57:48.688Z,1020.17
2018-12-27T02:58:48.662Z,1020.12
2018-12-27T02:59:48.670Z,1020.12
2018-12-27T03:00:48.647Z,1020.10
2018-12-27T03:01:48.642Z,1020.05
2018-12-27T03:02:48.623Z,1020.05
2018-12-27T03:03:48.615Z,1020.09
2018-12-27T03:04:48.606Z,1020.12
2018-12-27T03:05:48.613Z,1020.07
2018-12-27T03:06:48.575Z,1020.01
2018-12-27T03:07:48.570Z,1020.02
2018-12-27T03:08:48.554Z,1019.99
2018-12-27T03:09:48.552Z,1019.99
2018-12-27T03:10:48.568Z,1019.99
2018-12-27T03:11:48.521Z,1020.08
2018-12-27T03:12:48.513Z,1020.04
2018-12-27T03:13:48.513Z,1020.07
2018-12-27T03:14:48.503Z,1019.99
2018-12-27T03:15:48.489Z,1020.11
2018-12-27T03:16:48.505Z,1020.12
2018-12-27T03:17:48.455Z,1020.10
2018-12-27T03:18:48.445Z,1020.06
2018-12-27T03:19:48.443Z,1020.07
2018-12-27T03:20:48.426Z,1020.06
2018-12-27T03:21:48.457Z,1020.03
2018-12-27T03:22:48.419Z,1020.02
2018-12-27T03:23:55.320Z,1019.96
2018-12-27T03:24:48.392Z,1019.99
2018-12-27T03:25:48.372Z,1019.99
2018-12-27T03:26:48.363Z,1019.99
2018-12-27T03:27:48.381Z,1020.08
2018-12-27T03:28:48.350Z,1020.06
2018-12-27T03:29:48.330Z,1020.03
2018-12-27T03:30:48.351Z,1020.05
2018-12-27T03:31:48.311Z,1020.04
2018-12-27T03:32:48.300Z,1020.03
2018-12-27T03:33:52.617Z,1019.97
2018-12-27T03:34:48.289Z,1019.96
2018-12-27T03:35:48.319Z,1019.97
2018-12-27T03:36:48.263Z,1020.00
2018-12-27T03:37:48.243Z,1020.00
2018-12-27T03:38:48.234Z,1020.01
2018-12-27T03:39:48.223Z,1019.97
2018-12-27T03:40:48.216Z,1020.03
2018-12-27T03:41:48.238Z,1020.03
2018-12-27T03:42:48.199Z,1020.02
2018-12-27T03:43:48.185Z,1020.00
2018-12-27T03:44:48.170Z,1020.04
2018-12-27T03:45:48.166Z,1020.02
2018-12-27T03:46:48.179Z,1020.02
2018-12-27T03:47:48.144Z,1020.03
2018-12-27T03:48:48.133Z,1019.97
2018-12-27T03:49:48.121Z,1020.01
2018-12-27T03:50:48.110Z,1019.98
2018-12-27T03:51:48.115Z,1019.99
2018-12-27T03:52:48.088Z,1019.95
2018-12-27T03:53:48.081Z,1019.91
2018-12-27T03:54:48.077Z,1019.91
2018-12-27T03:55:48.060Z,1019.89
2018-12-27T03:56:48.078Z,1019.90
2018-12-27T03:57:48.032Z,1019.86
2018-12-27T03:58:48.024Z,1019.90
2018-12-27T03:59:48.019Z,1019.89
2018-12-27T04:00:48.008Z,1019.91
2018-12-27T04:01:48.011Z,1019.90
2018-12-27T04:02:47.980Z,1019.88
2018-12-27T04:03:47.968Z,1019.94
2018-12-27T04:04:47.956Z,1019.89
2018-12-27T04:05:48.042Z,1019.96
2018-12-27T04:06:47.966Z,1019.92
2018-12-27T04:07:47.934Z,1019.92
2018-12-27T04:08:47.919Z,1019.91
2018-12-27T04:09:47.987Z,1019.89
2018-12-27T04:10:47.894Z,1019.87
2018-12-27T04:11:47.921Z,1019.90
2018-12-27T04:12:47.875Z,1019.89
2018-12-27T04:13:47.865Z,1019.91
2018-12-27T04:14:47.862Z,1019.87
2018-12-27T04:15:47.839Z,1019.88
2018-12-27T04:16:47.829Z,1019.89
2018-12-27T04:17:47.860Z,1019.88
2018-12-27T04:18:47.812Z,1019.87
2018-12-27T04:19:47.801Z,1019.84
2018-12-27T04:20:47.791Z,1019.84
2018-12-27T04:21:47.774Z,1019.85
2018-12-27T04:22:47.767Z,1019.84
2018-12-27T04:23:47.779Z,1019.78
2018-12-27T04:24:47.745Z,1019.76
2018-12-27T04:25:47.736Z,1019.84
2018-12-27T04:26:47.730Z,1019.81
2018-12-27T04:27:47.716Z,1019.79
2018-12-27T04:28:47.728Z,1019.81
2018-12-27T04:29:47.694Z,1019.79
2018-12-27T04:30:47.678Z,1019.78
2018-12-27T04:31:47.678Z,1019.78
2018-12-27T04:32:47.686Z,1019.76
2018-12-27T04:33:47.647Z,1019.73
2018-12-27T04:34:47.669Z,1019.72
2018-12-27T04:35:47.626Z,1019.71
2018-12-27T04:36:47.613Z,1019.70
2018-12-27T04:37:47.611Z,1019.70
2018-12-27T04:38:47.597Z,1019.69
2018-12-27T04:39:47.600Z,1019.69
2018-12-27T04:40:47.603Z,1019.69
2018-12-27T04:41:47.569Z,1019.65
2018-12-27T04:42:47.565Z,1019.68
2018-12-27T04:43:47.540Z,1019.64
2018-12-27T04:44:47.531Z,1019.64
2018-12-27T04:45:47.550Z,1019.67
2018-12-27T04:46:47.517Z,1019.54
2018-12-27T04:47:47.497Z,1019.58
2018-12-27T04:48:47.485Z,1019.56
2018-12-27T04:49:47.481Z,1019.56
2018-12-27T04:50:47.491Z,1019.58
2018-12-27T04:51:47.460Z,1019.47
2018-12-27T04:52:47.449Z,1019.46
2018-12-27T04:53:47.437Z,1019.52
2018-12-27T04:54:47.447Z,1019.50
2018-12-27T04:55:47.411Z,1019.47
2018-12-27T04:56:47.401Z,1019.42
2018-12-27T04:57:47.405Z,1019.56
2018-12-27T04:58:47.386Z,1019.55
2018-12-27T04:59:47.396Z,1019.52
2018-12-27T05:00:47.389Z,1019.49
2018-12-27T05:01:47.381Z,1019.41
2018-12-27T05:02:47.334Z,1019.42
2018-12-27T05:03:47.335Z,1019.47
2018-12-27T05:04:47.319Z,1019.42
2018-12-27T05:05:47.304Z,1019.44
2018-12-27T05:06:47.298Z,1019.34
2018-12-27T05:07:47.304Z,1019.38
2018-12-27T05:08:47.275Z,1019.35
2018-12-27T05:09:47.269Z,1019.39
2018-12-27T05:10:47.256Z,1019.35
2018-12-27T05:11:47.279Z,1019.35
2018-12-27T05:12:47.246Z,1019.38
2018-12-27T05:13:47.220Z,1019.34
2018-12-27T05:14:47.209Z,1019.38
2018-12-27T05:15:47.203Z,1019.42
2018-12-27T05:16:47.191Z,1019.26
2018-12-27T05:17:47.214Z,1019.40
2018-12-27T05:18:47.172Z,1019.31
2018-12-27T05:19:47.154Z,1019.54
2018-12-27T05:22:04.208Z,1019.44
2018-12-27T05:23:04.217Z,1019.43
2018-12-27T05:24:04.188Z,1019.50
2018-12-27T05:25:13.729Z,1019.47
2018-12-27T05:26:04.166Z,1019.48
2018-12-27T05:27:12.727Z,1019.51
2018-12-27T05:28:04.147Z,1019.50
2018-12-27T05:29:04.161Z,1019.52
2018-12-27T05:30:04.124Z,1019.48
2018-12-27T05:31:04.108Z,1019.49
2018-12-27T05:32:04.093Z,1019.50
2018-12-27T05:33:04.100Z,1019.48
2018-12-27T05:34:04.077Z,1019.50
2018-12-27T05:35:04.091Z,1019.53
2018-12-27T05:36:13.009Z,1019.56
2018-12-27T05:37:04.048Z,1019.53
2018-12-27T05:38:04.096Z,1019.51
2018-12-27T05:39:04.022Z,1019.50
2018-12-27T05:40:04.006Z,1019.55
2018-12-27T05:41:04.086Z,1019.50
2018-12-27T05:42:03.987Z,1019.53
2018-12-27T05:43:04.003Z,1019.55
2018-12-27T05:44:03.973Z,1019.55
2018-12-27T05:45:03.963Z,1019.55
2018-12-27T05:46:03.951Z,1019.57
2018-12-27T05:47:03.930Z,1019.56
2018-12-27T05:48:03.950Z,1019.54
2018-12-27T05:49:03.913Z,1019.59
2018-12-27T05:50:03.898Z,1019.65
2018-12-27T05:51:03.898Z,1019.56
2018-12-27T05:52:03.885Z,1019.60
2018-12-27T05:53:03.866Z,1019.55
2018-12-27T05:54:03.887Z,1019.56
2018-12-27T05:55:03.885Z,1019.56
2018-12-27T05:56:03.840Z,1019.56
2018-12-27T05:57:03.835Z,1019.58
2018-12-27T05:58:03.820Z,1019.56
2018-12-27T05:59:03.886Z,1019.61
2018-12-27T06:00:04.078Z,1019.61
2018-12-27T06:01:03.790Z,1019.66
2018-12-27T06:02:03.769Z,1019.64
2018-12-27T06:03:03.764Z,1019.62
2018-12-27T06:04:03.760Z,1019.64
2018-12-27T06:05:03.744Z,1019.65
2018-12-27T06:06:03.752Z,1019.66
2018-12-27T06:07:03.749Z,1019.62
2018-12-27T06:08:03.711Z,1019.64
2018-12-27T06:09:03.700Z,1019.65
2018-12-27T06:10:03.726Z,1019.64
2018-12-27T06:11:03.717Z,1019.60
2018-12-27T06:12:03.665Z,1019.59
2018-12-27T06:13:03.734Z,1019.61
2018-12-27T06:14:03.671Z,1019.62
2018-12-27T06:15:03.639Z,1019.66
2018-12-27T06:16:03.646Z,1019.65
2018-12-27T06:17:03.616Z,1019.62
2018-12-27T06:18:03.604Z,1019.64
2018-12-27T06:19:03.588Z,1019.74
2018-12-27T06:20:03.602Z,1019.72
2018-12-27T06:21:03.587Z,1019.71
2018-12-27T06:22:03.555Z,1019.73
2018-12-27T06:23:03.553Z,1019.72
2018-12-27T06:24:03.537Z,1019.73
2018-12-27T06:25:03.550Z,1019.69
2018-12-27T06:26:03.531Z,1019.68
2018-12-27T06:27:03.507Z,1019.70
2018-12-27T06:28:03.498Z,1019.65
2018-12-27T06:29:03.504Z,1019.66
2018-12-27T06:30:04.175Z,1019.64
2018-12-27T06:31:09.484Z,1019.63
2018-12-27T06:32:03.454Z,1019.67
2018-12-27T06:33:03.444Z,1019.63
2018-12-27T06:34:03.434Z,1019.64
2018-12-27T06:35:03.427Z,1019.64
2018-12-27T06:36:03.432Z,1019.66
2018-12-27T06:37:03.404Z,1019.59
2018-12-27T06:38:03.414Z,1019.64
2018-12-27T06:39:03.374Z,1019.58
2018-12-27T06:40:03.361Z,1019.64
2018-12-27T06:41:03.357Z,1019.65
2018-12-27T06:42:03.369Z,1019.55
2018-12-27T06:43:03.331Z,1019.55
2018-12-27T06:44:03.317Z,1019.57
2018-12-27T06:45:03.309Z,1019.55
2018-12-27T06:46:03.296Z,1019.58
2018-12-27T06:47:03.315Z,1019.55
2018-12-27T06:48:03.282Z,1019.64
2018-12-27T06:49:03.273Z,1019.59
2018-12-27T06:50:03.264Z,1019.64
2018-12-27T06:51:03.271Z,1019.59
2018-12-27T06:52:03.253Z,1019.61
2018-12-27T06:53:03.220Z,1019.64
2018-12-27T06:54:03.213Z,1019.60
2018-12-27T06:55:03.206Z,1019.55
2018-12-27T06:56:03.213Z,1019.65
2018-12-27T06:57:03.178Z,1019.52
2018-12-27T06:58:03.188Z,1019.56
2018-12-27T06:59:03.175Z,1019.59
2018-12-27T07:00:03.183Z,1019.50
2018-12-27T07:01:03.144Z,1019.51
2018-12-27T07:02:03.136Z,1019.44
2018-12-27T07:03:03.143Z,1019.55
2018-12-27T07:04:03.104Z,1019.47
2018-12-27T07:05:03.098Z,1019.47
2018-12-27T07:06:03.081Z,1019.39
2018-12-27T07:07:03.078Z,1019.49
2018-12-27T07:08:03.101Z,1019.46
2018-12-27T07:09:03.056Z,1019.47
2018-12-27T07:10:03.045Z,1019.43
2018-12-27T07:11:03.029Z,1019.45
2018-12-27T07:12:03.024Z,1019.44
2018-12-27T07:13:03.021Z,1019.37
2018-12-27T07:14:03.036Z,1019.33
2018-12-27T07:15:02.999Z,1019.36
2018-12-27T07:16:02.982Z,1019.25
2018-12-27T07:17:02.965Z,1019.23
2018-12-27T07:18:02.954Z,1019.21
2018-12-27T07:19:02.966Z,1019.26
2018-12-27T07:20:02.940Z,1019.20
2018-12-27T07:21:02.923Z,1019.27
2018-12-27T07:22:02.927Z,1019.27
2018-12-27T07:23:02.923Z,1019.27
2018-12-27T07:24:02.887Z,1019.30
2018-12-27T07:25:02.880Z,1019.29
2018-12-27T07:26:02.866Z,1019.30
2018-12-27T07:27:02.862Z,1019.27
2018-12-27T07:28:02.875Z,1019.32
2018-12-27T07:29:02.833Z,1019.36
2018-12-27T07:30:02.828Z,1019.34
2018-12-27T07:31:02.818Z,1019.39
2018-12-27T07:32:02.805Z,1019.40
2018-12-27T07:33:04.226Z,1019.37
2018-12-27T07:34:02.783Z,1019.42
2018-12-27T07:35:02.770Z,1019.41
2018-12-27T07:36:02.775Z,1019.43
2018-12-27T07:37:02.746Z,1019.45
2018-12-27T07:38:02.735Z,1019.44
2018-12-27T07:39:02.732Z,1019.42
2018-12-27T07:40:02.719Z,1019.42
2018-12-27T07:41:02.730Z,1019.44
2018-12-27T07:42:02.699Z,1019.44
2018-12-27T07:43:02.682Z,1019.45
2018-12-27T07:44:02.670Z,1019.46
2018-12-27T07:45:02.670Z,1019.43
2018-12-27T07:46:02.710Z,1019.41
2018-12-27T07:47:02.642Z,1019.38
2018-12-27T07:48:02.632Z,1019.41
2018-12-27T07:49:02.615Z,1019.39
2018-12-27T07:50:02.603Z,1019.38
2018-12-27T07:51:02.606Z,1019.41
2018-12-27T07:52:02.624Z,1019.33
2018-12-27T07:53:02.579Z,1019.27
2018-12-27T07:54:02.570Z,1019.24
2018-12-27T07:55:02.555Z,1019.29
2018-12-27T07:56:02.537Z,1019.30
2018-12-27T07:57:02.528Z,1019.39
2018-12-27T07:58:02.542Z,1019.61
2018-12-27T07:59:02.536Z,1019.65
2018-12-27T08:00:02.513Z,1019.55
2018-12-27T08:01:02.494Z,1019.61
2018-12-27T08:02:02.495Z,1019.61
2018-12-27T08:03:02.470Z,1019.61
2018-12-27T08:04:02.495Z,1019.54
2018-12-27T08:05:04.120Z,1019.59
2018-12-27T08:06:02.435Z,1019.53
2018-12-27T08:07:02.419Z,1019.53
2018-12-27T08:08:02.413Z,1019.56
2018-12-27T08:09:02.402Z,1019.51
2018-12-27T08:10:02.407Z,1019.48
2018-12-27T08:11:02.386Z,1019.49
2018-12-27T08:12:02.421Z,1019.53
2018-12-27T08:13:02.361Z,1019.55
2018-12-27T08:14:02.373Z,1019.59
2018-12-27T08:15:02.335Z,1019.61
2018-12-27T08:16:02.323Z,1019.60
2018-12-27T08:17:02.330Z,1019.63
2018-12-27T08:18:02.308Z,1019.60
2018-12-27T08:19:02.314Z,1019.62
2018-12-27T08:20:02.279Z,1019.55
2018-12-27T08:21:02.288Z,1019.55
2018-12-27T08:22:02.259Z,1019.54
2018-12-27T08:23:02.257Z,1019.54
2018-12-27T08:24:02.267Z,1019.49
2018-12-27T08:25:02.275Z,1019.46
2018-12-27T08:26:02.225Z,1019.49
2018-12-27T08:27:02.204Z,1019.51
2018-12-27T08:28:02.203Z,1019.50
2018-12-27T08:29:02.201Z,1019.43
2018-12-27T08:30:02.194Z,1019.47
2018-12-27T08:31:02.174Z,1019.47
2018-12-27T08:32:02.156Z,1019.44
2018-12-27T08:33:02.139Z,1019.46
2018-12-27T08:34:02.157Z,1019.48
2018-12-27T08:35:02.128Z,1019.45
2018-12-27T08:36:02.202Z,1019.40
2018-12-27T08:37:02.108Z,1019.40
2018-12-27T08:38:02.094Z,1019.45
2018-12-27T08:39:02.085Z,1019.40
2018-12-27T08:40:02.069Z,1019.47
2018-12-27T08:41:02.091Z,1019.44
2018-12-27T08:42:02.052Z,1019.44
2018-12-27T08:43:02.043Z,1019.47
2018-12-27T08:44:02.029Z,1019.44
2018-12-27T08:45:02.020Z,1019.42
2018-12-27T08:46:02.007Z,1019.41
2018-12-27T08:47:02.028Z,1019.43
2018-12-27T08:48:01.981Z,1019.40
2018-12-27T08:49:01.975Z,1019.40
2018-12-27T08:50:01.966Z,1019.40
2018-12-27T08:51:01.950Z,1019.39
2018-12-27T08:52:01.936Z,1019.37
2018-12-27T08:53:01.947Z,1019.40
2018-12-27T08:54:01.919Z,1019.41
2018-12-27T08:55:01.933Z,1019.38
2018-12-27T08:56:01.899Z,1019.36
2018-12-27T08:57:01.892Z,1019.45
2018-12-27T08:58:01.911Z,1019.45
2018-12-27T08:59:01.859Z,1019.44
2018-12-27T09:00:01.859Z,1019.47
2018-12-27T09:01:01.842Z,1019.43
2018-12-27T09:02:01.831Z,1019.40
2018-12-27T09:03:01.826Z,1019.40
2018-12-27T09:04:01.840Z,1019.43
2018-12-27T09:05:01.800Z,1019.36
2018-12-27T09:06:01.786Z,1019.41
2018-12-27T09:07:01.783Z,1019.36
2018-12-27T09:08:01.770Z,1019.38
2018-12-27T09:09:01.788Z,1019.36
2018-12-27T09:10:01.771Z,1019.38
2018-12-27T09:11:01.734Z,1019.34
2018-12-27T09:12:01.722Z,1019.36
2018-12-27T09:13:01.713Z,1019.32
2018-12-27T09:14:01.735Z,1019.31
2018-12-27T09:15:01.698Z,1019.31
2018-12-27T09:16:01.688Z,1019.36
2018-12-27T09:17:01.676Z,1019.34
2018-12-27T09:18:01.664Z,1019.37
2018-12-27T09:19:01.646Z,1019.37
2018-12-27T09:20:01.660Z,1019.35
2018-12-27T09:21:01.628Z,1019.37
2018-12-27T09:22:01.617Z,1019.39
2018-12-27T09:23:01.604Z,1019.42
2018-12-27T09:24:01.597Z,1019.39
2018-12-27T09:25:01.622Z,1019.45
2018-12-27T09:26:01.570Z,1019.47
2018-12-27T09:27:01.648Z,1019.39
2018-12-27T09:28:01.554Z,1019.43
2018-12-27T09:29:01.549Z,1019.41
2018-12-27T09:30:01.564Z,1019.45
2018-12-27T09:31:01.520Z,1019.42
2018-12-27T09:32:01.506Z,1019.37
2018-12-27T09:33:01.497Z,1019.41
2018-12-27T09:34:01.484Z,1019.33
2018-12-27T09:35:01.510Z,1019.39
2018-12-27T09:36:01.469Z,1019.36
2018-12-27T09:37:01.466Z,1019.33
2018-12-27T09:38:01.444Z,1019.37
2018-12-27T09:39:01.435Z,1019.39
2018-12-27T09:40:01.427Z,1019.36
2018-12-27T09:41:01.436Z,1019.39
2018-12-27T09:42:01.405Z,1019.37
2018-12-27T09:43:01.402Z,1019.36
2018-12-27T09:44:01.381Z,1019.40
2018-12-27T09:45:01.367Z,1019.45
2018-12-27T09:46:01.384Z,1019.38
2018-12-27T09:47:01.350Z,1019.37
2018-12-27T09:48:01.342Z,1019.37
2018-12-27T09:49:01.329Z,1019.38
2018-12-27T09:50:01.319Z,1019.37
2018-12-27T09:51:01.321Z,1019.40
2018-12-27T09:52:02.282Z,1019.39
2018-12-27T09:53:01.292Z,1019.40
2018-12-27T09:54:01.277Z,1019.39
2018-12-27T09:55:01.268Z,1019.38
2018-12-27T09:56:01.270Z,1019.32
2018-12-27T09:57:01.236Z,1019.34
2018-12-27T09:58:01.230Z,1019.37
2018-12-27T09:59:01.220Z,1019.29
2018-12-27T10:00:01.224Z,1019.27
2018-12-27T10:01:01.233Z,1019.24
2018-12-27T10:02:01.190Z,1019.26
2018-12-27T10:03:01.173Z,1019.22
2018-12-27T10:04:01.167Z,1019.22
2018-12-27T10:05:01.195Z,1019.29
2018-12-27T10:06:01.171Z,1019.19
2018-12-27T10:07:01.137Z,1019.18
2018-12-27T10:08:01.125Z,1019.13
2018-12-27T10:09:01.108Z,1019.12
2018-12-27T10:10:01.101Z,1019.12
2018-12-27T10:11:01.098Z,1019.12
2018-12-27T10:12:01.105Z,1019.12
2018-12-27T10:13:01.070Z,1019.17
2018-12-27T10:14:01.061Z,1019.16
2018-12-27T10:15:01.113Z,1019.07
2018-12-27T10:16:01.031Z,1019.10
2018-12-27T10:17:01.062Z,1019.07
2018-12-27T10:18:01.014Z,1019.05
2018-12-27T10:19:01.007Z,1019.05
2018-12-27T10:20:00.996Z,1019.06
2018-12-27T10:21:01.029Z,1019.01
2018-12-27T10:22:00.974Z,1019.01
2018-12-27T10:23:00.985Z,1019.00
2018-12-27T10:24:00.968Z,1018.96
2018-12-27T10:25:00.942Z,1019.04
2018-12-27T10:26:00.929Z,1018.96
2018-12-27T10:27:00.917Z,1018.90
2018-12-27T10:28:00.905Z,1018.92
2018-12-27T10:29:00.917Z,1018.91
2018-12-27T10:30:00.904Z,1018.91
2018-12-27T10:31:00.878Z,1018.88
2018-12-27T10:32:00.866Z,1018.97
2018-12-27T10:33:00.863Z,1018.88
2018-12-27T10:34:00.848Z,1018.95
2018-12-27T10:35:00.857Z,1018.88
2018-12-27T10:36:00.821Z,1018.96
2018-12-27T10:37:00.810Z,1018.91
2018-12-27T10:38:00.800Z,1018.89
2018-12-27T10:39:00.794Z,1018.88
2018-12-27T10:40:00.811Z,1018.85
2018-12-27T10:41:00.763Z,1018.88
2018-12-27T10:42:00.755Z,1018.85
2018-12-27T10:43:00.748Z,1018.93
2018-12-27T10:44:00.738Z,1018.84
2018-12-27T10:45:00.735Z,1018.86
2018-12-27T10:46:00.737Z,1018.81
2018-12-27T10:47:00.701Z,1018.82
2018-12-27T10:48:00.703Z,1018.76
2018-12-27T10:49:00.676Z,1018.82
2018-12-27T10:50:00.668Z,1018.80
2018-12-27T10:51:00.684Z,1018.75
2018-12-27T10:52:01.629Z,1018.80
2018-12-27T10:53:00.641Z,1018.73
2018-12-27T10:54:00.636Z,1018.74
2018-12-27T10:55:00.613Z,1018.73
2018-12-27T10:56:00.634Z,1018.73
2018-12-27T10:57:00.613Z,1018.62
2018-12-27T10:58:00.586Z,1018.68
2018-12-27T10:59:00.596Z,1018.71
2018-12-27T11:00:00.562Z,1018.68
2018-12-27T11:01:00.546Z,1018.69
2018-12-27T11:02:00.559Z,1018.65
2018-12-27T11:03:00.534Z,1018.62
2018-12-27T11:04:00.522Z,1018.60
2018-12-27T11:05:00.515Z,1018.61
2018-12-27T11:06:00.536Z,1018.54
2018-12-27T11:07:00.485Z,1018.53
2018-12-27T11:08:00.477Z,1018.48
2018-12-27T11:09:00.463Z,1018.48
2018-12-27T11:10:00.467Z,1018.52
2018-12-27T11:11:00.470Z,1018.40
2018-12-27T11:12:00.435Z,1018.40
2018-12-27T11:13:00.423Z,1018.48
2018-12-27T11:14:00.430Z,1018.44
2018-12-27T11:15:00.413Z,1018.46
2018-12-27T11:16:00.416Z,1018.44
2018-12-27T11:17:00.388Z,1018.44
2018-12-27T11:18:00.377Z,1018.41
2018-12-27T11:19:00.382Z,1018.42
2018-12-27T11:20:00.343Z,1018.35
2018-12-27T11:21:00.334Z,1018.33
2018-12-27T11:22:00.324Z,1018.44
2018-12-27T11:23:00.318Z,1018.38
2018-12-27T11:24:00.340Z,1018.38
2018-12-27T11:25:00.307Z,1018.32
2018-12-27T11:26:00.286Z,1018.30
2018-12-27T11:27:00.269Z,1018.31
2018-12-27T11:28:00.259Z,1018.35
2018-12-27T11:29:00.287Z,1018.28
2018-12-27T11:30:00.242Z,1018.34
2018-12-27T11:31:00.229Z,1018.31
2018-12-27T11:32:00.214Z,1018.28
2018-12-27T11:33:00.207Z,1018.34
2018-12-27T11:34:00.193Z,1018.30
2018-12-27T11:35:00.213Z,1018.26
2018-12-27T11:36:00.179Z,1018.27
2018-12-27T11:37:09.082Z,1018.24
2018-12-27T11:38:00.149Z,1018.20
2018-12-27T11:39:00.143Z,1018.15
2018-12-27T11:40:00.158Z,1018.22
2018-12-27T11:41:00.148Z,1018.14
2018-12-27T11:42:00.127Z,1018.16
2018-12-27T11:43:00.136Z,1018.22
2018-12-27T11:44:00.086Z,1018.17
2018-12-27T11:45:00.154Z,1018.17
2018-12-27T11:46:00.095Z,1018.19
2018-12-27T11:47:00.058Z,1018.15
2018-12-27T11:48:00.048Z,1018.16
2018-12-27T11:49:00.034Z,1018.19
2018-12-27T11:50:00.043Z,1018.18
2018-12-27T11:51:00.031Z,1018.16
2018-12-27T11:52:00.002Z,1018.24
2018-12-27T11:53:00.018Z,1018.22
2018-12-27T11:53:59.987Z,1018.24
2018-12-27T11:54:59.974Z,1018.25
2018-12-27T11:55:59.984Z,1018.25
2018-12-27T11:56:59.966Z,1018.23
2018-12-27T11:57:59.937Z,1018.22
2018-12-27T11:58:59.934Z,1018.33
2018-12-27T11:59:59.920Z,1018.29
2018-12-27T12:00:59.937Z,1018.26
2018-12-27T12:01:59.892Z,1018.33
2018-12-27T12:02:59.880Z,1018.31
2018-12-27T12:03:59.874Z,1018.34
2018-12-27T12:04:59.866Z,1018.46
2018-12-27T12:06:03.366Z,1018.36
2018-12-27T12:06:59.870Z,1018.39